createdAt,value
2022-10-11T00:01:43.998Z,100789.78
2022-10-11T00:04:10.763Z,100776.78
2022-10-11T00:06:38.383Z,100790.81
2022-10-11T00:09:06.123Z,100759.25
2022-10-11T00:11:33.050Z,100784.34
2022-10-11T00:13:59.685Z,100802.22
2022-10-11T00:16:26.422Z,100810.31
2022-10-11T00:18:53.195Z,100780.34
2022-10-11T00:21:21.076Z,100789.09
2022-10-11T00:23:48.712Z,100801.97
2022-10-11T00:26:15.556Z,100789.19
2022-10-11T00:28:42.563Z,100788.84
2022-10-11T00:31:13.127Z,100771.38
2022-10-11T00:33:40.251Z,100780.34
2022-10-11T00:36:08.985Z,100798.28
2022-10-11T00:38:35.976Z,100765.47
2022-10-11T00:41:02.619Z,100795.53
2022-10-11T00:43:31.006Z,100799.41
2022-10-11T00:45:57.688Z,100791.03
2022-10-11T00:48:47.402Z,100738.78
2022-10-11T00:51:23.511Z,100776.91
2022-10-11T00:53:51.888Z,100780.41
2022-10-11T00:56:26.381Z,100786.44
2022-10-11T00:58:54.809Z,100784.75
2022-10-11T01:01:21.916Z,100790.63
2022-10-11T01:03:48.588Z,100764.94
2022-10-11T01:06:16.141Z,100765.00
2022-10-11T01:08:44.149Z,100784.78
2022-10-11T01:11:17.974Z,100695.88
2022-10-11T01:14:31.813Z,100786.25
2022-10-11T01:17:17.400Z,100769.91
2022-10-11T01:19:59.192Z,100786.47
2022-10-11T01:22:48.882Z,100789.31
2022-10-11T01:25:32.747Z,100790.53
2022-10-11T01:28:15.465Z,100774.47
2022-10-11T01:30:42.979Z,100763.34
2022-10-11T01:33:18.035Z,100766.13
2022-10-11T01:36:09.334Z,100782.63
2022-10-11T01:38:52.039Z,100775.91
2022-10-11T01:41:28.204Z,100781.94
2022-10-11T01:43:59.708Z,100770.13
2022-10-11T01:46:29.010Z,100783.91
2022-10-11T01:48:58.444Z,100777.81
2022-10-11T01:51:29.904Z,100761.72
2022-10-11T01:54:06.992Z,100707.38
2022-10-11T01:57:20.310Z,100763.63
2022-10-11T01:59:58.940Z,100774.00
2022-10-11T02:02:46.548Z,100780.22
2022-10-11T02:05:31.551Z,100776.66
2022-10-11T02:08:18.087Z,100757.59
2022-10-11T02:10:55.013Z,100737.69
2022-10-11T02:13:34.198Z,100761.13
2022-10-11T02:16:03.920Z,100761.28
2022-10-11T02:18:36.715Z,100751.75
2022-10-11T02:21:08.674Z,100770.88
2022-10-11T02:23:43.175Z,100763.94
2022-10-11T02:26:12.196Z,100747.84
2022-10-11T02:28:42.293Z,100734.28
2022-10-11T02:31:11.365Z,100769.66
2022-10-11T02:33:44.291Z,100742.88
2022-10-11T02:36:26.905Z,100756.69
2022-10-11T02:38:59.091Z,100769.75
2022-10-11T02:41:31.238Z,100758.47
2022-10-11T02:44:04.229Z,100757.63
2022-10-11T02:46:31.484Z,100656.66
2022-10-11T02:48:59.812Z,100757.63
2022-10-11T02:51:33.396Z,100730.41
2022-10-11T02:54:00.461Z,100756.25
2022-10-11T02:56:27.084Z,100726.91
2022-10-11T02:58:53.773Z,100760.69
2022-10-11T03:01:20.872Z,100684.75
2022-10-11T03:03:47.582Z,100740.66
2022-10-11T03:06:14.373Z,100771.44
2022-10-11T03:08:41.098Z,100768.66
2022-10-11T03:11:07.940Z,100772.13
2022-10-11T03:13:34.772Z,100777.25
2022-10-11T03:16:07.333Z,100749.69
2022-10-11T03:18:34.328Z,100770.50
2022-10-11T03:21:01.002Z,100758.03
2022-10-11T03:23:27.618Z,100743.53
2022-10-11T03:25:54.380Z,100753.66
2022-10-11T03:28:21.472Z,100764.72
2022-10-11T03:30:52.240Z,100723.41
2022-10-11T03:33:19.628Z,100773.47
2022-10-11T03:35:47.957Z,100777.00
2022-10-11T03:38:20.536Z,100711.53
2022-10-11T03:40:47.291Z,100771.75
2022-10-11T03:43:14.248Z,100758.13
2022-10-11T03:45:43.785Z,100770.31
2022-10-11T03:48:11.060Z,100766.72
2022-10-11T03:50:38.294Z,100764.22
2022-10-11T03:53:06.766Z,100765.91
2022-10-11T03:55:33.554Z,100752.22
2022-10-11T03:58:00.341Z,100760.16
2022-10-11T04:00:27.009Z,100762.06
2022-10-11T04:02:53.625Z,100744.84
2022-10-11T04:05:21.378Z,100767.38
2022-10-11T04:07:48.029Z,100757.75
2022-10-11T04:10:14.649Z,100776.84
2022-10-11T04:12:41.373Z,100750.94
2022-10-11T04:15:08.326Z,100749.38
2022-10-11T04:17:34.928Z,100753.91
2022-10-11T04:20:01.723Z,100752.16
2022-10-11T04:22:28.497Z,100754.69
2022-10-11T04:24:55.240Z,100720.91
2022-10-11T04:27:21.840Z,100764.88
2022-10-11T04:29:48.552Z,100761.63
2022-10-11T04:32:15.247Z,100783.38
2022-10-11T04:34:42.095Z,100763.53
2022-10-11T04:37:08.755Z,100759.16
2022-10-11T04:39:35.391Z,100760.00
2022-10-11T04:42:02.015Z,100687.56
2022-10-11T04:44:28.661Z,100715.28
2022-10-11T04:46:55.315Z,100754.28
2022-10-11T04:49:22.205Z,100766.56
2022-10-11T04:51:48.961Z,100777.84
2022-10-11T04:54:16.104Z,100775.31
2022-10-11T04:56:42.760Z,100739.16
2022-10-11T04:59:09.533Z,100778.84
2022-10-11T05:01:36.241Z,100748.75
2022-10-11T05:04:03.441Z,100787.81
2022-10-11T05:06:30.144Z,100732.44
2022-10-11T05:08:56.772Z,100755.03
2022-10-11T05:11:23.383Z,100772.34
2022-10-11T05:13:50.096Z,100783.59
2022-10-11T05:16:17.694Z,100771.31
2022-10-11T05:18:44.832Z,100783.38
2022-10-11T05:21:16.610Z,100793.78
2022-10-11T05:23:43.298Z,100755.03
2022-10-11T05:26:10.163Z,100786.13
2022-10-11T05:28:36.884Z,100789.47
2022-10-11T05:31:04.056Z,100802.38
2022-10-11T05:33:30.921Z,100797.94
2022-10-11T05:35:57.656Z,100795.38
2022-10-11T05:38:24.397Z,100803.09
2022-10-11T05:40:51.715Z,100802.91
2022-10-11T05:43:18.683Z,100701.81
2022-10-11T05:45:45.536Z,100793.94
2022-10-11T05:48:13.057Z,100811.03
2022-10-11T05:50:39.812Z,100816.97
2022-10-11T05:53:07.158Z,100794.22
2022-10-11T05:55:42.423Z,100805.06
2022-10-11T05:58:13.085Z,100822.84
2022-10-11T06:00:39.932Z,100829.66
2022-10-11T06:03:07.962Z,100838.78
2022-10-11T06:05:35.413Z,100845.25
2022-10-11T06:08:03.134Z,100847.53
2022-10-11T06:10:29.953Z,100826.50
2022-10-11T06:12:56.571Z,100825.25
2022-10-11T06:15:23.591Z,100833.44
2022-10-11T06:17:50.419Z,100815.09
2022-10-11T06:20:17.490Z,100845.94
2022-10-11T06:22:44.126Z,100794.78
2022-10-11T06:25:10.919Z,100839.38
2022-10-11T06:27:37.904Z,100833.75
2022-10-11T06:30:05.511Z,100848.34
2022-10-11T06:32:32.269Z,100813.56
2022-10-11T06:34:58.865Z,100840.41
2022-10-11T06:37:25.507Z,100844.22
2022-10-11T06:39:52.184Z,100830.66
2022-10-11T06:42:18.858Z,100830.03
2022-10-11T06:44:45.509Z,100823.81
2022-10-11T06:47:12.215Z,100818.28
2022-10-11T06:49:38.865Z,100818.75
2022-10-11T06:52:05.566Z,100823.22
2022-10-11T06:54:32.159Z,100836.34
2022-10-11T06:56:59.301Z,100830.97
2022-10-11T06:59:25.968Z,100845.22
2022-10-11T07:01:52.577Z,100813.19
2022-10-11T07:04:19.219Z,100832.19
2022-10-11T07:06:45.841Z,100810.97
2022-10-11T07:09:12.581Z,100839.75
2022-10-11T07:11:39.233Z,100824.66
2022-10-11T07:14:07.983Z,100810.63
2022-10-11T07:16:36.682Z,100844.25
2022-10-11T07:19:05.631Z,100856.50
2022-10-11T07:21:33.459Z,100853.72
2022-10-11T07:24:00.461Z,100848.56
2022-10-11T07:26:28.009Z,100842.28
2022-10-11T07:28:54.701Z,100860.22
2022-10-11T07:31:23.799Z,100859.44
2022-10-11T07:33:50.975Z,100821.91
2022-10-11T07:36:17.930Z,100857.38
2022-10-11T07:38:46.701Z,100844.19
2022-10-11T07:41:14.052Z,100855.38
2022-10-11T07:43:43.296Z,100845.13
2022-10-11T07:46:11.206Z,100853.91
2022-10-11T07:48:38.342Z,100830.44
2022-10-11T07:51:15.192Z,100822.28
2022-10-11T07:53:49.535Z,100854.84
2022-10-11T07:56:18.813Z,100859.72
2022-10-11T07:58:50.330Z,100822.94
2022-10-11T08:01:17.520Z,100846.75
2022-10-11T08:03:44.322Z,100839.53
2022-10-11T08:06:13.668Z,100839.91
2022-10-11T08:08:40.249Z,100843.19
2022-10-11T08:11:07.528Z,100864.00
2022-10-11T08:13:34.384Z,100849.94
2022-10-11T08:16:01.797Z,100836.69
2022-10-11T08:18:28.654Z,100852.41
2022-10-11T08:20:55.299Z,100841.56
2022-10-11T08:23:21.918Z,100844.22
2022-10-11T08:25:49.011Z,100761.13
2022-10-11T08:28:17.913Z,100865.66
2022-10-11T08:30:53.214Z,100842.47
2022-10-11T08:33:21.449Z,100863.06
2022-10-11T08:35:50.276Z,100862.44
2022-10-11T08:38:18.075Z,100854.00
2022-10-11T08:40:49.968Z,100850.88
2022-10-11T08:43:36.163Z,100867.00
2022-10-11T08:46:05.913Z,100855.22
2022-10-11T08:48:55.006Z,100863.97
2022-10-11T08:51:21.567Z,100871.41
2022-10-11T08:54:11.788Z,100857.75
2022-10-11T08:56:40.079Z,100872.09
2022-10-11T08:59:12.833Z,100869.63
2022-10-11T09:01:52.905Z,100873.28
2022-10-11T09:04:19.941Z,100855.38
2022-10-11T09:07:23.856Z,100866.00
2022-10-11T09:10:08.924Z,100870.72
2022-10-11T09:12:49.579Z,100867.28
2022-10-11T09:15:28.919Z,100859.47
2022-10-11T09:18:20.276Z,100864.63
2022-10-11T09:20:46.888Z,100865.56
2022-10-11T09:23:52.291Z,100866.78
2022-10-11T09:26:27.812Z,100858.41
2022-10-11T09:29:28.417Z,100833.75
2022-10-11T09:31:57.231Z,100848.94
2022-10-11T09:34:32.352Z,100861.84
2022-10-11T09:37:38.094Z,100866.22
2022-10-11T09:40:10.856Z,100859.69
2022-10-11T09:42:37.552Z,100859.59
2022-10-11T09:45:18.142Z,100849.19
2022-10-11T09:47:45.224Z,100842.81
2022-10-11T09:50:22.044Z,100774.63
2022-10-11T09:52:51.256Z,100842.59
2022-10-11T09:55:46.524Z,100861.16
2022-10-11T09:58:40.268Z,100861.16
2022-10-11T10:01:09.563Z,100859.16
2022-10-11T10:03:41.740Z,100831.06
2022-10-11T10:06:32.610Z,100849.06
2022-10-11T10:09:21.416Z,100828.47
2022-10-11T10:11:48.335Z,100834.16
2022-10-11T10:14:27.512Z,100844.88
2022-10-11T10:17:06.613Z,100844.41
2022-10-11T10:19:45.069Z,100853.53
2022-10-11T10:22:22.429Z,100842.66
2022-10-11T10:24:51.400Z,100838.78
2022-10-11T10:27:24.477Z,100844.53
2022-10-11T10:30:09.750Z,100838.19
2022-10-11T10:32:53.338Z,100844.75
2022-10-11T10:35:30.406Z,100809.47
2022-10-11T10:38:08.498Z,100845.34
2022-10-11T10:40:41.167Z,100832.31
2022-10-11T10:43:15.701Z,100840.09
2022-10-11T10:46:08.958Z,100836.41
2022-10-11T10:52:19.966Z,100835.88
2022-10-11T10:55:00.376Z,100824.31
2022-10-11T10:57:49.037Z,100840.72
2022-10-11T11:00:19.628Z,100839.38
2022-10-11T11:03:03.008Z,100824.09
2022-10-11T11:05:57.480Z,100830.81
2022-10-11T11:08:38.777Z,100841.00
2022-10-11T11:11:29.524Z,100820.28
2022-10-11T11:14:10.207Z,100829.94
2022-10-11T11:17:10.448Z,100837.00
2022-10-11T11:19:41.520Z,100839.75
2022-10-11T11:22:59.624Z,100838.56
2022-10-11T11:25:58.659Z,100841.56
2022-10-11T11:28:49.600Z,100832.66
2022-10-11T11:31:41.360Z,100807.94
2022-10-11T11:34:22.218Z,100815.59
2022-10-11T11:37:15.358Z,100787.56
2022-10-11T11:39:49.976Z,100817.69
2022-10-11T11:42:16.508Z,100825.28
2022-10-11T11:44:48.012Z,100823.47
2022-10-11T11:47:40.654Z,100794.34
2022-10-11T11:50:22.228Z,100816.16
2022-10-11T11:53:00.550Z,100789.34
2022-10-11T11:55:32.384Z,100812.34
2022-10-11T11:58:11.248Z,100810.97
2022-10-11T12:00:55.020Z,100802.66
2022-10-11T12:03:27.539Z,100810.47
2022-10-11T12:06:12.594Z,100804.22
2022-10-11T12:08:43.625Z,100807.44
2022-10-11T12:11:49.831Z,100801.38
2022-10-11T12:14:22.748Z,100806.09
2022-10-11T12:17:09.359Z,100798.19
2022-10-11T12:19:38.042Z,100803.41
2022-10-11T12:22:49.023Z,100799.78
2022-10-11T12:25:18.553Z,100805.91
2022-10-11T12:27:47.233Z,100800.75
2022-10-11T12:30:47.751Z,100804.28
2022-10-11T12:33:31.092Z,100810.44
2022-10-11T12:36:01.520Z,100808.31
2022-10-11T12:38:34.153Z,100791.31
2022-10-11T12:41:10.062Z,100804.00
2022-10-11T12:44:19.296Z,100781.53
2022-10-11T12:47:31.838Z,100800.75
2022-10-11T12:50:32.188Z,100791.91
2022-10-11T12:53:23.597Z,100803.47
2022-10-11T12:55:53.274Z,100807.19
2022-10-11T12:58:22.711Z,100809.94
2022-10-11T13:00:52.494Z,100813.13
2022-10-11T13:03:41.312Z,100810.44
2022-10-11T13:06:43.345Z,100811.91
2022-10-11T13:09:10.159Z,100810.16
2022-10-11T13:11:52.574Z,100810.25
2022-10-11T13:14:26.032Z,100811.09
2022-10-11T13:17:17.452Z,100808.00
2022-10-11T13:19:44.215Z,100791.75
2022-10-11T13:22:23.583Z,100791.13
2022-10-11T13:24:50.318Z,100806.50
2022-10-11T13:27:21.481Z,100789.81
2022-10-11T13:29:50.240Z,100718.41
2022-10-11T13:32:24.387Z,100793.66
2022-10-11T13:34:58.380Z,100806.72
2022-10-11T13:37:27.559Z,100806.38
2022-10-11T13:39:55.939Z,100805.09
2022-10-11T13:42:31.796Z,100809.19
2022-10-11T13:44:59.861Z,100803.00
2022-10-11T13:47:30.003Z,100786.78
2022-10-11T13:50:23.339Z,100810.66
2022-10-11T13:53:09.902Z,100816.63
2022-10-11T13:55:42.453Z,100812.25
2022-10-11T13:58:31.591Z,100799.38
2022-10-11T14:01:02.073Z,100787.84
2022-10-11T14:03:44.816Z,100793.53
2022-10-11T14:06:11.647Z,100797.25
2022-10-11T14:08:55.251Z,100783.25
2022-10-11T14:11:39.722Z,100788.88
2022-10-11T14:14:34.018Z,100818.13
2022-10-11T14:17:19.347Z,100793.25
2022-10-11T14:19:47.945Z,100794.19
2022-10-11T14:22:18.529Z,100789.75
2022-10-11T14:24:48.537Z,100800.72
2022-10-11T14:27:19.317Z,100803.09
2022-10-11T14:30:06.038Z,100789.25
2022-10-11T14:32:34.688Z,100778.88
2022-10-11T14:35:01.340Z,100780.22
2022-10-11T14:37:27.967Z,100797.59
2022-10-11T14:39:54.823Z,100788.53
2022-10-11T14:42:21.470Z,100802.72
2022-10-11T14:44:48.068Z,100782.56
2022-10-11T14:47:17.993Z,100810.53
2022-10-11T14:49:44.732Z,100784.38
2022-10-11T14:52:13.114Z,100812.44
2022-10-11T14:54:40.493Z,100775.09
2022-10-11T14:57:07.120Z,100820.38
2022-10-11T14:59:36.991Z,100802.38
2022-10-11T15:02:06.464Z,100817.91
2022-10-11T15:04:33.532Z,100783.84
2022-10-11T15:07:00.484Z,100793.47
2022-10-11T15:09:27.103Z,100801.56
2022-10-11T15:11:54.799Z,100811.19
2022-10-11T15:14:23.375Z,100814.03
2022-10-11T15:16:50.336Z,100786.66
2022-10-11T15:19:22.628Z,100803.72
2022-10-11T15:21:49.833Z,100799.88
2022-10-11T15:24:16.791Z,100808.16
2022-10-11T15:26:44.053Z,100818.53
2022-10-11T15:29:12.202Z,100822.66
2022-10-11T15:31:39.630Z,100824.63
2022-10-11T15:34:06.369Z,100825.31
2022-10-11T15:36:33.036Z,100778.44
2022-10-11T15:39:01.637Z,100766.22
2022-10-11T15:41:28.494Z,100785.19
2022-10-11T15:43:55.107Z,100827.63
2022-10-11T15:46:22.977Z,100823.63
2022-10-11T15:48:51.237Z,100818.72
2022-10-11T15:51:18.216Z,100830.72
2022-10-11T15:53:44.817Z,100829.44
2022-10-11T15:56:16.267Z,100835.69
2022-10-11T15:58:43.296Z,100831.38
2022-10-11T16:01:18.889Z,100837.25
2022-10-11T16:03:47.904Z,100814.34
2022-10-11T16:06:15.223Z,100835.16
2022-10-11T16:08:42.016Z,100836.38
2022-10-11T16:11:09.917Z,100833.47
2022-10-11T16:13:36.995Z,100840.09
2022-10-11T16:16:08.781Z,100843.78
2022-10-11T16:18:36.245Z,100817.50
2022-10-11T16:21:10.644Z,100852.41
2022-10-11T16:23:38.071Z,100723.81
2022-10-11T16:26:07.708Z,100840.75
2022-10-11T16:28:35.645Z,100823.09
2022-10-11T16:31:14.280Z,100826.53
2022-10-11T16:33:45.845Z,100832.63
2022-10-11T16:36:36.770Z,100843.50
2022-10-11T16:39:11.801Z,100855.63
2022-10-11T16:41:38.636Z,100854.53
2022-10-11T16:44:05.728Z,100870.94
2022-10-11T16:46:33.331Z,100868.38
2022-10-11T16:49:00.052Z,100869.72
2022-10-11T16:51:26.660Z,100863.06
2022-10-11T16:53:53.455Z,100786.94
2022-10-11T16:56:22.581Z,100796.41
2022-10-11T16:58:49.384Z,100834.97
2022-10-11T17:01:16.089Z,100865.25
2022-10-11T17:03:42.813Z,100865.72
2022-10-11T17:06:09.817Z,100845.38
2022-10-11T17:08:36.593Z,100859.63
2022-10-11T17:11:03.582Z,100842.69
2022-10-11T17:13:30.412Z,100865.19
2022-10-11T17:15:57.096Z,100866.41
2022-10-11T17:18:24.004Z,100871.56
2022-10-11T17:20:50.618Z,100865.69
2022-10-11T17:23:17.258Z,100762.84
2022-10-11T17:25:47.286Z,100878.91
2022-10-11T17:28:13.983Z,100888.09
2022-10-11T17:30:42.100Z,100852.09
2022-10-11T17:33:09.162Z,100873.19
2022-10-11T17:35:35.791Z,100889.59
2022-10-11T17:38:06.165Z,100887.53
2022-10-11T17:40:33.235Z,100896.94
2022-10-11T17:42:59.939Z,100879.19
2022-10-11T17:45:26.645Z,100884.97
2022-10-11T17:47:53.324Z,100877.66
2022-10-11T17:50:19.980Z,100843.22
2022-10-11T17:52:46.828Z,100904.75
2022-10-11T17:55:13.734Z,100891.56
2022-10-11T17:57:40.490Z,100873.59
2022-10-11T18:00:07.796Z,100881.16
2022-10-11T18:02:34.476Z,100877.63
2022-10-11T18:05:01.160Z,100872.38
2022-10-11T18:07:27.750Z,100903.13
2022-10-11T18:09:54.464Z,100906.56
2022-10-11T18:12:21.104Z,100881.75
2022-10-11T18:14:47.789Z,100911.31
2022-10-11T18:17:14.405Z,100904.84
2022-10-11T18:19:40.984Z,100910.03
2022-10-11T18:22:07.715Z,100913.91
2022-10-11T18:24:34.660Z,100871.59
2022-10-11T18:27:01.427Z,100908.81
2022-10-11T18:29:28.069Z,100856.91
2022-10-11T18:31:54.729Z,100907.19
2022-10-11T18:34:21.353Z,100882.50
2022-10-11T18:36:48.160Z,100905.50
2022-10-11T18:39:15.742Z,100913.06
2022-10-11T18:41:44.692Z,100881.66
2022-10-11T18:44:14.307Z,100876.97
2022-10-11T18:46:41.373Z,100809.81
2022-10-11T18:49:08.838Z,100853.91
2022-10-11T18:51:40.596Z,100901.03
2022-10-11T18:54:08.721Z,100896.41
2022-10-11T18:56:36.933Z,100880.53
2022-10-11T18:59:04.752Z,100887.88
2022-10-11T19:01:38.264Z,100876.78
2022-10-11T19:04:06.927Z,100890.91
2022-10-11T19:06:39.744Z,100890.06
2022-10-11T19:09:15.091Z,100876.47
2022-10-11T19:11:41.908Z,100897.22
2022-10-11T19:14:11.629Z,100895.44
2022-10-11T19:16:40.886Z,100908.56
2022-10-11T19:19:09.392Z,100848.63
2022-10-11T19:21:36.591Z,100904.53
2022-10-11T19:24:03.610Z,100875.75
2022-10-11T19:26:38.432Z,100893.31
2022-10-11T19:29:09.247Z,100900.78
2022-10-11T19:31:40.085Z,100883.59
2022-10-11T19:34:06.810Z,100878.97
2022-10-11T19:36:36.679Z,100900.75
2022-10-11T19:39:05.982Z,100893.31
2022-10-11T19:41:33.353Z,100887.44
2022-10-11T19:44:00.092Z,100841.06
2022-10-11T19:46:44.875Z,100916.63
2022-10-11T19:49:17.492Z,100882.22
2022-10-11T19:51:44.287Z,100877.75
2022-10-11T19:54:13.601Z,100893.41
2022-10-11T19:56:40.688Z,100915.47
2022-10-11T19:59:07.486Z,100864.03
2022-10-11T20:01:35.961Z,100909.53
2022-10-11T20:04:07.510Z,100885.59
2022-10-11T20:06:38.660Z,100915.81
2022-10-11T20:09:28.465Z,100867.75
2022-10-11T20:11:54.840Z,100898.50
2022-10-11T20:14:21.522Z,100912.19
2022-10-11T20:16:50.126Z,100904.50
2022-10-11T20:19:17.371Z,100906.09
2022-10-11T20:21:44.980Z,100909.53
2022-10-11T20:24:11.830Z,100909.34
2022-10-11T20:26:39.304Z,100901.94
2022-10-11T20:29:06.065Z,100910.81
2022-10-11T20:31:34.212Z,100903.28
2022-10-11T20:34:02.571Z,100877.94
2022-10-11T20:36:30.295Z,100924.47
2022-10-11T20:38:58.528Z,100932.28
2022-10-11T20:41:31.769Z,100934.63
2022-10-11T20:44:00.065Z,100928.84
2022-10-11T20:46:29.922Z,100900.78
2022-10-11T20:49:01.622Z,100921.66
2022-10-11T20:51:30.669Z,100927.66
2022-10-11T20:53:58.342Z,100924.41
2022-10-11T20:56:25.041Z,100923.44
2022-10-11T20:58:53.535Z,100918.78
2022-10-11T21:01:23.466Z,100924.81
2022-10-11T21:03:50.497Z,100908.09
2022-10-11T21:06:17.136Z,100911.50
2022-10-11T21:08:43.832Z,100919.22
2022-10-11T21:11:11.604Z,100902.81
2022-10-11T21:13:38.565Z,100914.28
2022-10-11T21:16:12.316Z,100929.53
2022-10-11T21:18:39.421Z,100855.38
2022-10-11T21:21:11.300Z,100927.91
2022-10-11T21:23:38.758Z,100924.09
2022-10-11T21:26:11.396Z,100878.28
2022-10-11T21:28:39.396Z,100938.94
2022-10-11T21:31:08.012Z,100825.78
2022-10-11T21:33:35.379Z,100925.81
2022-10-11T21:36:11.495Z,100914.78
2022-10-11T21:38:38.429Z,100921.16
2022-10-11T21:41:06.653Z,100926.94
2022-10-11T21:43:35.780Z,100924.72
2022-10-11T21:46:29.288Z,100931.03
2022-10-11T21:49:08.650Z,100896.59
2022-10-11T21:51:35.656Z,100912.34
2022-10-11T21:54:02.350Z,100914.09
2022-10-11T21:56:29.968Z,100934.75
2022-10-11T21:58:56.975Z,100915.81
2022-10-11T22:01:23.976Z,100924.81
2022-10-11T22:03:52.419Z,100918.03
2022-10-11T22:06:19.466Z,100925.06
2022-10-11T22:08:46.101Z,100883.13
2022-10-11T22:11:12.885Z,100923.25
2022-10-11T22:13:39.896Z,100937.88
2022-10-11T22:16:08.967Z,100931.22
2022-10-11T22:18:35.691Z,100847.13
2022-10-11T22:21:17.603Z,100936.91
2022-10-11T22:23:46.718Z,100940.81
2022-10-11T22:26:16.001Z,100935.78
2022-10-11T22:28:43.370Z,100932.50
2022-10-11T22:31:11.057Z,100932.91
2022-10-11T22:33:38.094Z,100870.13
2022-10-11T22:36:10.162Z,100910.25
2022-10-11T22:38:38.763Z,100933.03
2022-10-11T22:41:05.550Z,100921.63
2022-10-11T22:43:32.605Z,100941.53
2022-10-11T22:45:59.443Z,100921.91
2022-10-11T22:48:26.429Z,100939.16
2022-10-11T22:50:53.958Z,100931.69
2022-10-11T22:53:20.968Z,100940.09
2022-10-11T22:55:47.948Z,100939.56
2022-10-11T22:58:14.940Z,100931.81
2022-10-11T23:00:41.635Z,100857.00
2022-10-11T23:03:08.552Z,100937.34
2022-10-11T23:05:35.883Z,100942.56
2022-10-11T23:08:02.520Z,100933.97
2022-10-11T23:10:29.162Z,100907.03
2022-10-11T23:12:55.787Z,100846.25
2022-10-11T23:15:22.570Z,100924.75
2022-10-11T23:17:49.185Z,100921.31
2022-10-11T23:20:15.806Z,100885.38
2022-10-11T23:22:42.425Z,100846.94
2022-10-11T23:25:09.475Z,100830.63
2022-10-11T23:27:36.334Z,100937.47
2022-10-11T23:30:03.725Z,100932.75
2022-10-11T23:32:30.374Z,100844.13
2022-10-11T23:34:57.040Z,100946.81
2022-10-11T23:37:23.769Z,100928.88
2022-10-11T23:39:50.357Z,100935.94
2022-10-11T23:42:16.948Z,100889.84
2022-10-11T23:44:43.595Z,100926.94
2022-10-11T23:47:10.257Z,100933.66
2022-10-11T23:49:36.865Z,100909.09
2022-10-11T23:52:03.580Z,100940.22
2022-10-11T23:54:30.208Z,100925.66
2022-10-11T23:56:57.156Z,100926.00
2022-10-11T23:59:23.774Z,100923.44
